createdAt,value
2022-10-11T00:01:03.292Z,69.93
2022-10-11T00:03:29.621Z,66.75
2022-10-11T00:05:55.962Z,64.25
2022-10-11T00:08:22.238Z,70.43
2022-10-11T00:10:48.498Z,100.18
2022-10-11T00:13:14.746Z,97.85
2022-10-11T00:15:40.997Z,107.50
2022-10-11T00:18:07.554Z,115.93
2022-10-11T00:20:33.851Z,120.45
2022-10-11T00:23:00.110Z,114.55
2022-10-11T00:25:26.572Z,100.45
2022-10-11T00:27:52.818Z,98.03
2022-10-11T00:30:19.068Z,92.03
2022-10-11T00:32:45.322Z,83.80
2022-10-11T00:35:11.568Z,97.28
2022-10-11T00:37:37.837Z,98.38
2022-10-11T00:40:04.205Z,96.03
2022-10-11T00:42:30.504Z,105.20
2022-10-11T00:44:56.742Z,97.28
2022-10-11T00:47:23.001Z,92.35
2022-10-11T00:49:49.262Z,87.70
2022-10-11T00:52:15.537Z,82.93
2022-10-11T00:54:41.792Z,92.75
2022-10-11T00:57:08.046Z,95.53
2022-10-11T00:59:34.299Z,89.47
2022-10-11T01:02:00.541Z,85.93
2022-10-11T01:04:26.824Z,97.10
2022-10-11T01:06:53.097Z,102.45
2022-10-11T01:09:19.333Z,114.65
2022-10-11T01:11:45.600Z,118.47
2022-10-11T01:14:11.887Z,129.82
2022-10-11T01:16:38.152Z,149.52
2022-10-11T01:19:04.416Z,147.88
2022-10-11T01:21:31.016Z,142.70
2022-10-11T01:23:57.270Z,146.35
2022-10-11T01:26:23.518Z,141.80
2022-10-11T01:28:50.182Z,130.32
2022-10-11T01:31:16.484Z,116.28
2022-10-11T01:33:42.738Z,109.95
2022-10-11T01:36:09.064Z,104.03
2022-10-11T01:38:35.354Z,97.28
2022-10-11T01:41:01.604Z,93.95
2022-10-11T01:43:27.872Z,96.20
2022-10-11T01:45:54.117Z,94.30
2022-10-11T01:48:21.101Z,96.35
2022-10-11T01:50:47.575Z,88.35
2022-10-11T01:53:13.847Z,96.32
2022-10-11T01:55:40.158Z,102.78
2022-10-11T01:58:06.433Z,116.20
2022-10-11T02:00:32.735Z,104.22
2022-10-11T02:02:59.021Z,113.65
2022-10-11T02:05:25.304Z,117.95
2022-10-11T02:07:51.563Z,117.65
2022-10-11T02:10:17.817Z,123.13
2022-10-11T02:12:44.104Z,114.75
2022-10-11T02:15:10.393Z,107.43
2022-10-11T02:17:36.677Z,108.07
2022-10-11T02:20:02.932Z,113.15
2022-10-11T02:22:29.175Z,103.88
2022-10-11T02:24:55.454Z,101.50
2022-10-11T02:27:21.711Z,105.07
2022-10-11T02:29:47.967Z,95.00
2022-10-11T02:32:14.220Z,98.75
2022-10-11T02:34:40.474Z,89.18
2022-10-11T02:37:06.723Z,101.18
2022-10-11T02:39:32.973Z,87.05
2022-10-11T02:41:59.227Z,82.53
2022-10-11T02:44:25.493Z,83.90
2022-10-11T02:46:51.738Z,78.82
2022-10-11T02:49:18.022Z,84.07
2022-10-11T02:51:44.349Z,84.75
2022-10-11T02:54:10.638Z,84.20
2022-10-11T02:56:36.890Z,86.55
2022-10-11T02:59:03.157Z,95.78
2022-10-11T03:01:29.482Z,106.85
2022-10-11T03:03:55.819Z,109.32
2022-10-11T03:06:22.064Z,111.40
2022-10-11T03:08:48.327Z,108.07
2022-10-11T03:11:14.592Z,121.18
2022-10-11T03:13:40.856Z,116.82
2022-10-11T03:16:07.143Z,112.40
2022-10-11T03:18:33.428Z,119.43
2022-10-11T03:20:59.695Z,111.25
2022-10-11T03:23:25.937Z,112.15
2022-10-11T03:25:52.234Z,111.88
2022-10-11T03:28:18.684Z,115.30
2022-10-11T03:30:45.022Z,80.60
2022-10-11T03:33:11.279Z,65.82
2022-10-11T03:35:37.554Z,72.97
2022-10-11T03:38:03.828Z,64.10
2022-10-11T03:40:30.103Z,63.15
2022-10-11T03:42:56.714Z,61.22
2022-10-11T03:45:22.981Z,65.65
2022-10-11T03:47:49.240Z,97.80
2022-10-11T03:50:15.514Z,154.20
2022-10-11T03:52:41.766Z,142.45
2022-10-11T03:55:08.016Z,80.30
2022-10-11T03:57:34.295Z,115.85
2022-10-11T04:00:00.561Z,78.05
2022-10-11T04:02:27.014Z,99.25
2022-10-11T04:04:53.259Z,89.45
2022-10-11T04:07:19.532Z,74.72
2022-10-11T04:09:45.801Z,56.15
2022-10-11T04:12:12.486Z,62.55
2022-10-11T04:14:38.733Z,62.70
2022-10-11T04:17:04.982Z,64.13
2022-10-11T04:19:31.365Z,68.88
2022-10-11T04:21:57.652Z,86.53
2022-10-11T04:24:23.976Z,82.35
2022-10-11T04:26:50.228Z,65.47
2022-10-11T04:29:16.490Z,62.92
2022-10-11T04:31:42.756Z,64.55
2022-10-11T04:34:09.032Z,51.95
2022-10-11T04:36:35.575Z,56.00
2022-10-11T04:39:01.856Z,59.55
2022-10-11T04:41:29.292Z,59.53
2022-10-11T04:43:55.860Z,61.90
2022-10-11T04:46:22.123Z,68.35
2022-10-11T04:48:48.383Z,64.78
2022-10-11T04:51:14.650Z,74.85
2022-10-11T04:53:40.916Z,71.80
2022-10-11T04:56:07.925Z,64.38
2022-10-11T04:58:34.422Z,60.40
2022-10-11T05:01:00.676Z,54.08
2022-10-11T05:03:26.942Z,58.40
2022-10-11T05:05:53.207Z,51.05
2022-10-11T05:08:19.466Z,51.45
2022-10-11T05:10:45.731Z,54.15
2022-10-11T05:13:11.988Z,54.33
2022-10-11T05:15:38.249Z,56.60
2022-10-11T05:18:04.521Z,42.53
2022-10-11T05:20:30.776Z,45.33
2022-10-11T05:22:57.035Z,46.33
2022-10-11T05:25:23.340Z,48.17
2022-10-11T05:27:49.603Z,47.70
2022-10-11T05:30:15.921Z,53.30
2022-10-11T05:32:42.210Z,54.08
2022-10-11T05:35:08.484Z,59.95
2022-10-11T05:37:34.771Z,55.75
2022-10-11T05:40:02.099Z,78.35
2022-10-11T05:42:28.404Z,85.32
2022-10-11T05:44:54.651Z,80.47
2022-10-11T05:47:20.910Z,79.82
2022-10-11T05:49:47.178Z,74.25
2022-10-11T05:52:13.583Z,69.53
2022-10-11T05:54:39.835Z,61.88
2022-10-11T05:57:06.102Z,53.75
2022-10-11T05:59:32.370Z,51.22
2022-10-11T06:01:58.632Z,49.53
2022-10-11T06:04:24.927Z,53.70
2022-10-11T06:06:51.200Z,67.82
2022-10-11T06:09:17.658Z,120.75
2022-10-11T06:11:45.367Z,123.00
2022-10-11T06:14:11.720Z,58.42
2022-10-11T06:16:37.996Z,80.85
2022-10-11T06:19:04.339Z,50.65
2022-10-11T06:21:30.616Z,62.30
2022-10-11T06:24:01.165Z,59.92
2022-10-11T06:26:27.862Z,51.15
2022-10-11T06:28:54.215Z,53.53
2022-10-11T06:31:20.493Z,60.58
2022-10-11T06:33:46.834Z,58.63
2022-10-11T06:36:13.160Z,60.78
2022-10-11T06:38:44.537Z,56.28
2022-10-11T06:41:11.375Z,61.38
2022-10-11T06:43:37.677Z,61.45
2022-10-11T06:46:04.144Z,59.65
2022-10-11T06:48:31.472Z,60.45
2022-10-11T06:51:00.281Z,54.47
2022-10-11T06:53:27.882Z,49.88
2022-10-11T06:55:54.265Z,52.33
2022-10-11T06:58:20.569Z,64.93
2022-10-11T07:00:47.040Z,83.45
2022-10-11T07:03:13.446Z,78.88
2022-10-11T07:05:39.702Z,123.55
2022-10-11T07:08:05.949Z,58.25
2022-10-11T07:10:32.204Z,72.10
2022-10-11T07:12:58.468Z,107.35
2022-10-11T07:15:24.778Z,50.78
2022-10-11T07:17:51.031Z,47.60
2022-10-11T07:20:17.293Z,78.00
2022-10-11T07:22:43.550Z,66.57
2022-10-11T07:25:09.798Z,40.92
2022-10-11T07:27:36.048Z,64.60
2022-10-11T07:30:02.480Z,54.17
2022-10-11T07:32:28.729Z,38.88
2022-10-11T07:34:55.700Z,46.72
2022-10-11T07:37:22.035Z,44.20
2022-10-11T07:39:48.291Z,68.20
2022-10-11T07:42:14.561Z,50.78
2022-10-11T07:44:40.910Z,42.35
2022-10-11T07:47:11.110Z,47.53
2022-10-11T07:49:37.738Z,45.05
2022-10-11T07:52:03.997Z,56.78
2022-10-11T07:54:30.247Z,63.67
2022-10-11T07:56:56.635Z,80.30
2022-10-11T07:59:22.914Z,55.97
2022-10-11T08:01:49.437Z,63.63
2022-10-11T08:04:16.443Z,98.07
2022-10-11T08:06:42.704Z,95.57
2022-10-11T08:09:09.320Z,58.20
2022-10-11T08:11:35.858Z,58.33
2022-10-11T08:14:05.667Z,61.63
2022-10-11T08:16:31.907Z,62.85
2022-10-11T08:18:58.225Z,85.15
2022-10-11T08:21:24.485Z,74.00
2022-10-11T08:23:50.770Z,68.60
2022-10-11T08:26:17.075Z,65.93
2022-10-11T08:28:43.420Z,74.18
2022-10-11T08:31:09.992Z,72.65
2022-10-11T08:33:36.276Z,65.72
2022-10-11T08:36:02.842Z,58.78
2022-10-11T08:38:29.511Z,59.80
2022-10-11T08:40:56.204Z,54.05
2022-10-11T08:43:22.459Z,75.63
2022-10-11T08:45:48.732Z,60.35
2022-10-11T08:48:15.004Z,107.55
2022-10-11T08:50:41.359Z,119.70
2022-10-11T08:53:07.961Z,70.15
2022-10-11T08:55:34.833Z,50.38
2022-10-11T08:58:01.097Z,44.35
2022-10-11T09:00:27.342Z,50.88
2022-10-11T09:03:08.023Z,69.65
2022-10-11T09:05:35.410Z,52.92
2022-10-11T09:08:01.676Z,55.25
2022-10-11T09:10:27.937Z,49.08
2022-10-11T09:12:54.564Z,55.22
2022-10-11T09:15:20.814Z,57.50
2022-10-11T09:17:47.139Z,53.00
2022-10-11T09:20:13.460Z,86.30
2022-10-11T09:22:39.920Z,94.50
2022-10-11T09:25:06.295Z,101.47
2022-10-11T09:27:57.689Z,90.72
2022-10-11T09:30:18.806Z,67.47
2022-10-11T09:32:45.176Z,72.28
2022-10-11T09:35:11.618Z,80.78
2022-10-11T09:37:37.952Z,58.85
2022-10-11T09:40:04.224Z,55.20
2022-10-11T09:42:30.514Z,47.40
2022-10-11T09:44:57.437Z,60.90
2022-10-11T09:47:23.716Z,57.17
2022-10-11T09:49:50.106Z,61.83
2022-10-11T09:52:16.350Z,65.03
2022-10-11T09:54:42.628Z,57.50
2022-10-11T09:57:08.882Z,64.35
2022-10-11T09:59:35.210Z,74.75
2022-10-11T10:02:01.552Z,81.38
2022-10-11T10:04:27.889Z,97.20
2022-10-11T10:06:54.172Z,68.43
2022-10-11T10:09:20.444Z,81.70
2022-10-11T10:11:46.694Z,86.85
2022-10-11T10:14:12.969Z,83.65
2022-10-11T10:16:39.226Z,76.88
2022-10-11T10:19:05.627Z,61.80
2022-10-11T10:21:31.923Z,71.60
2022-10-11T10:23:59.851Z,58.97
2022-10-11T10:28:52.412Z,58.30
2022-10-11T10:31:18.713Z,65.95
2022-10-11T10:33:44.974Z,101.38
2022-10-11T10:36:11.229Z,80.30
2022-10-11T10:38:37.617Z,116.50
2022-10-11T10:41:03.877Z,65.15
2022-10-11T10:43:30.140Z,57.55
2022-10-11T10:45:56.484Z,62.47
2022-10-11T10:48:22.765Z,102.50
2022-10-11T10:50:49.024Z,141.43
2022-10-11T10:53:15.423Z,153.20
2022-10-11T10:55:41.753Z,170.23
2022-10-11T10:58:09.598Z,178.73
2022-10-11T11:00:35.873Z,147.57
2022-10-11T11:03:02.141Z,169.25
2022-10-11T11:05:28.421Z,105.53
2022-10-11T11:07:54.970Z,75.93
2022-10-11T11:10:21.252Z,109.47
2022-10-11T11:12:47.667Z,93.90
2022-10-11T11:15:13.925Z,142.48
2022-10-11T11:17:40.175Z,178.63
2022-10-11T11:20:06.457Z,153.65
2022-10-11T11:22:33.010Z,161.23
2022-10-11T11:24:59.324Z,153.65
2022-10-11T11:27:25.596Z,123.65
2022-10-11T11:29:55.331Z,79.32
2022-10-11T11:32:22.008Z,146.30
2022-10-11T11:34:48.264Z,86.07
2022-10-11T11:37:14.514Z,93.65
2022-10-11T11:39:43.272Z,126.13
2022-10-11T11:42:09.536Z,194.23
2022-10-11T11:44:35.824Z,137.98
2022-10-11T11:47:02.118Z,139.93
2022-10-11T11:49:28.465Z,115.03
2022-10-11T11:51:54.710Z,124.68
2022-10-11T11:54:20.983Z,98.65
2022-10-11T11:56:47.247Z,99.82
2022-10-11T11:59:13.502Z,108.50
2022-10-11T12:01:39.812Z,100.05
2022-10-11T12:04:06.097Z,75.60
2022-10-11T12:06:32.364Z,104.03
2022-10-11T12:09:01.664Z,102.60
2022-10-11T12:11:33.059Z,120.80
2022-10-11T12:14:04.469Z,91.28
2022-10-11T12:16:30.972Z,180.30
2022-10-11T12:18:57.248Z,93.28
2022-10-11T12:21:23.504Z,83.32
2022-10-11T12:23:49.831Z,75.43
2022-10-11T12:26:16.100Z,81.25
2022-10-11T12:28:42.875Z,116.78
2022-10-11T12:31:09.396Z,97.85
2022-10-11T12:33:35.647Z,97.32
2022-10-11T12:36:05.700Z,84.60
2022-10-11T12:38:34.630Z,125.88
2022-10-11T12:41:00.924Z,105.63
2022-10-11T12:43:27.294Z,99.35
2022-10-11T12:45:53.564Z,111.15
2022-10-11T12:48:19.836Z,113.50
2022-10-11T12:50:46.117Z,88.00
2022-10-11T12:53:12.376Z,86.10
2022-10-11T12:55:38.671Z,97.20
2022-10-11T12:58:07.450Z,102.70
2022-10-11T13:00:33.741Z,79.32
2022-10-11T13:03:00.030Z,92.07
2022-10-11T13:05:26.294Z,93.65
2022-10-11T13:07:52.573Z,103.03
2022-10-11T13:10:18.826Z,97.25
2022-10-11T13:12:45.276Z,96.45
2022-10-11T13:15:11.529Z,99.28
2022-10-11T13:17:38.788Z,96.32
2022-10-11T13:20:05.217Z,77.95
2022-10-11T13:22:31.476Z,76.50
2022-10-11T13:24:57.919Z,79.80
2022-10-11T13:27:24.214Z,89.82
2022-10-11T13:29:50.478Z,125.88
2022-10-11T13:32:16.775Z,117.25
2022-10-11T13:34:43.082Z,95.95
2022-10-11T13:37:09.359Z,99.97
2022-10-11T13:39:35.619Z,100.90
2022-10-11T13:42:01.891Z,84.22
2022-10-11T13:44:28.288Z,92.55
2022-10-11T13:46:54.563Z,86.47
2022-10-11T13:49:20.832Z,94.75
2022-10-11T13:51:47.097Z,109.35
2022-10-11T13:54:14.057Z,108.28
2022-10-11T13:56:40.325Z,103.73
2022-10-11T13:59:06.579Z,103.05
2022-10-11T14:01:32.904Z,112.30
2022-10-11T14:03:59.206Z,127.90
2022-10-11T14:06:25.470Z,117.82
2022-10-11T14:08:51.748Z,120.47
2022-10-11T14:11:18.017Z,102.28
2022-10-11T14:13:44.294Z,100.82
2022-10-11T14:16:10.622Z,91.00
2022-10-11T14:18:36.899Z,124.78
2022-10-11T14:21:03.419Z,88.28
2022-10-11T14:23:29.799Z,96.60
2022-10-11T14:25:56.059Z,93.68
2022-10-11T14:28:22.362Z,104.22
2022-10-11T14:30:48.663Z,88.43
2022-10-11T14:33:14.932Z,94.25
2022-10-11T14:35:43.139Z,110.30
2022-10-11T14:38:09.459Z,99.85
2022-10-11T14:40:35.880Z,86.82
2022-10-11T14:43:02.180Z,99.68
2022-10-11T14:45:28.462Z,87.68
2022-10-11T14:47:54.775Z,145.52
2022-10-11T14:50:21.030Z,115.82
2022-10-11T14:52:47.307Z,108.35
2022-10-11T14:55:13.551Z,101.25
2022-10-11T14:57:39.827Z,121.70
2022-10-11T15:00:36.841Z,132.30
2022-10-11T15:03:03.141Z,91.18
2022-10-11T15:05:33.858Z,96.15
2022-10-11T15:08:00.677Z,102.80
2022-10-11T15:10:26.956Z,117.20
2022-10-11T15:12:53.360Z,135.77
2022-10-11T15:15:20.846Z,147.07
2022-10-11T15:17:47.115Z,107.85
2022-10-11T15:20:13.423Z,144.27
2022-10-11T15:22:39.679Z,135.85
2022-10-11T15:25:05.938Z,131.25
2022-10-11T15:27:32.301Z,127.53
2022-10-11T15:29:58.576Z,81.15
2022-10-11T15:32:24.818Z,74.07
2022-10-11T15:34:51.079Z,75.35
2022-10-11T15:37:17.340Z,83.65
2022-10-11T15:39:43.838Z,75.28
2022-10-11T15:42:10.090Z,77.32
2022-10-11T15:44:36.337Z,95.45
2022-10-11T15:47:02.662Z,83.30
2022-10-11T15:49:29.004Z,92.38
2022-10-11T15:51:55.262Z,77.10
2022-10-11T15:54:21.503Z,81.63
2022-10-11T15:56:48.031Z,117.25
2022-10-11T15:59:14.320Z,143.57
2022-10-11T16:01:40.738Z,149.50
2022-10-11T16:04:07.072Z,135.07
2022-10-11T16:06:33.332Z,120.47
2022-10-11T16:08:59.742Z,113.55
2022-10-11T16:11:26.003Z,125.10
2022-10-11T16:13:52.274Z,137.52
2022-10-11T16:16:18.559Z,114.90
2022-10-11T16:18:44.836Z,97.80
2022-10-11T16:21:11.140Z,77.55
2022-10-11T16:23:37.408Z,90.95
2022-10-11T16:26:04.175Z,67.28
2022-10-11T16:28:30.734Z,129.98
2022-10-11T16:30:57.097Z,190.85
2022-10-11T16:33:23.370Z,129.00
2022-10-11T16:35:49.619Z,94.00
2022-10-11T16:38:16.019Z,76.32
2022-10-11T16:40:42.470Z,80.25
2022-10-11T16:43:08.735Z,77.88
2022-10-11T16:45:35.004Z,65.35
2022-10-11T16:48:01.515Z,59.58
2022-10-11T16:50:28.941Z,55.83
2022-10-11T16:52:55.450Z,78.72
2022-10-11T16:55:21.805Z,97.35
2022-10-11T16:57:48.089Z,64.57
2022-10-11T17:00:14.344Z,48.63
2022-10-11T17:02:40.671Z,54.05
2022-10-11T17:05:06.939Z,57.03
2022-10-11T17:07:33.387Z,47.45
2022-10-11T17:10:01.051Z,50.03
2022-10-11T17:12:27.382Z,73.78
2022-10-11T17:14:53.622Z,67.40
2022-10-11T17:17:19.873Z,54.15
2022-10-11T17:19:47.530Z,43.17
2022-10-11T17:22:13.810Z,44.20
2022-10-11T17:24:40.059Z,47.88
2022-10-11T17:27:06.324Z,49.58
2022-10-11T17:29:32.722Z,44.03
2022-10-11T17:31:59.135Z,47.92
2022-10-11T17:34:25.423Z,63.22
2022-10-11T17:36:51.702Z,77.15
2022-10-11T17:39:17.980Z,92.93
2022-10-11T17:41:44.288Z,111.53
2022-10-11T17:44:10.599Z,72.93
2022-10-11T17:46:36.861Z,48.30
2022-10-11T17:49:04.692Z,50.83
2022-10-11T17:51:30.993Z,63.75
2022-10-11T17:53:57.261Z,70.25
2022-10-11T17:56:28.164Z,58.63
2022-10-11T17:58:55.946Z,54.47
2022-10-11T18:01:22.292Z,53.05
2022-10-11T18:03:48.578Z,48.05
2022-10-11T18:06:14.886Z,51.38
2022-10-11T18:08:41.279Z,51.35
2022-10-11T18:11:07.984Z,60.13
2022-10-11T18:13:34.438Z,80.10
2022-10-11T18:16:00.682Z,73.95
2022-10-11T18:18:27.120Z,57.20
2022-10-11T18:20:57.291Z,54.22
2022-10-11T18:23:23.683Z,66.20
2022-10-11T18:25:49.942Z,77.80
2022-10-11T18:28:17.467Z,77.43
2022-10-11T18:30:43.878Z,74.25
2022-10-11T18:33:10.131Z,57.80
2022-10-11T18:35:36.388Z,51.38
2022-10-11T18:38:04.294Z,54.53
2022-10-11T18:40:30.540Z,60.83
2022-10-11T18:42:56.817Z,77.03
2022-10-11T18:45:23.072Z,81.38
2022-10-11T18:47:49.336Z,79.53
2022-10-11T18:50:15.594Z,84.15
2022-10-11T18:52:44.577Z,61.67
2022-10-11T18:55:11.002Z,64.97
2022-10-11T18:57:37.270Z,76.30
2022-10-11T19:00:11.759Z,77.85
2022-10-11T19:02:49.852Z,75.05
2022-10-11T19:05:16.205Z,81.45
2022-10-11T19:07:43.058Z,74.40
2022-10-11T19:10:09.313Z,58.13
2022-10-11T19:12:35.574Z,59.50
2022-10-11T19:15:01.839Z,66.97
2022-10-11T19:17:28.107Z,69.45
2022-10-11T19:19:54.412Z,89.95
2022-10-11T19:22:20.680Z,95.80
2022-10-11T19:24:46.935Z,89.60
2022-10-11T19:27:13.195Z,82.53
2022-10-11T19:29:39.475Z,74.22
2022-10-11T19:32:05.734Z,60.88
2022-10-11T19:34:32.601Z,52.88
2022-10-11T19:37:00.799Z,53.70
2022-10-11T19:39:27.047Z,56.15
2022-10-11T19:41:53.611Z,55.13
2022-10-11T19:44:19.862Z,54.53
2022-10-11T19:46:53.465Z,50.88
2022-10-11T19:49:22.328Z,50.80
2022-10-11T19:51:48.636Z,54.67
2022-10-11T19:54:14.925Z,52.28
2022-10-11T19:56:41.326Z,62.20
2022-10-11T19:59:07.570Z,57.22
2022-10-11T20:01:33.919Z,50.58
2022-10-11T20:04:00.281Z,48.33
2022-10-11T20:06:26.550Z,50.83
2022-10-11T20:09:04.898Z,57.30
2022-10-11T20:11:39.200Z,52.03
2022-10-11T20:14:05.498Z,50.60
2022-10-11T20:16:31.803Z,47.17
2022-10-11T20:19:01.969Z,53.53
2022-10-11T20:21:28.381Z,76.88
2022-10-11T20:23:54.632Z,78.32
2022-10-11T20:26:21.252Z,62.33
2022-10-11T20:28:48.779Z,61.70
2022-10-11T20:31:16.511Z,60.45
2022-10-11T20:33:42.835Z,59.80
2022-10-11T20:36:09.087Z,54.58
2022-10-11T20:38:35.331Z,55.03
2022-10-11T20:41:03.337Z,56.75
2022-10-11T20:43:29.617Z,47.85
2022-10-11T20:45:55.864Z,49.28
2022-10-11T20:48:22.114Z,54.15
2022-10-11T20:50:48.364Z,58.70
2022-10-11T20:53:16.401Z,64.47
2022-10-11T20:58:08.930Z,46.28
2022-10-11T21:00:38.297Z,53.88
2022-10-11T21:03:04.573Z,55.05
2022-10-11T21:05:30.851Z,47.17
2022-10-11T21:07:57.094Z,43.47
2022-10-11T21:10:23.343Z,45.65
2022-10-11T21:12:49.590Z,46.97
2022-10-11T21:15:15.844Z,49.72
2022-10-11T21:17:42.088Z,63.05
2022-10-11T21:20:08.356Z,58.28
2022-10-11T21:22:35.018Z,71.00
2022-10-11T21:25:01.419Z,79.57
2022-10-11T21:27:27.699Z,76.75
2022-10-11T21:29:53.942Z,74.10
2022-10-11T21:32:20.195Z,66.97
2022-10-11T21:34:46.484Z,73.80
2022-10-11T21:37:12.741Z,74.57
2022-10-11T21:39:38.986Z,80.20
2022-10-11T21:42:05.302Z,77.57
2022-10-11T21:44:32.440Z,71.97
2022-10-11T21:47:07.450Z,71.07
2022-10-11T21:49:34.069Z,61.97
2022-10-11T21:52:00.378Z,69.88
2022-10-11T21:54:26.886Z,67.47
2022-10-11T21:56:53.177Z,68.53
2022-10-11T21:59:19.431Z,73.75
2022-10-11T22:01:45.715Z,65.78
2022-10-11T22:04:12.004Z,64.45
2022-10-11T22:06:38.282Z,66.28
2022-10-11T22:09:04.543Z,69.28
2022-10-11T22:11:30.793Z,59.50
2022-10-11T22:13:57.062Z,61.67
2022-10-11T22:16:23.400Z,62.42
2022-10-11T22:18:49.651Z,59.92
2022-10-11T22:21:15.930Z,62.17
2022-10-11T22:23:42.180Z,61.47
2022-10-11T22:26:08.432Z,59.05
2022-10-11T22:28:34.743Z,58.35
2022-10-11T22:31:01.043Z,56.83
2022-10-11T22:33:27.426Z,53.80
2022-10-11T22:35:53.683Z,57.20
2022-10-11T22:38:19.956Z,60.50
2022-10-11T22:40:46.340Z,61.00
2022-10-11T22:43:12.591Z,59.92
2022-10-11T22:45:38.883Z,62.85
2022-10-11T22:48:05.132Z,63.85
2022-10-11T22:50:31.614Z,61.33
2022-10-11T22:52:57.859Z,61.58
2022-10-11T22:55:25.879Z,59.13
2022-10-11T22:57:52.118Z,57.03
2022-10-11T23:00:18.456Z,58.17
2022-10-11T23:02:44.711Z,56.55
2022-10-11T23:05:11.112Z,50.90
2022-10-11T23:07:37.703Z,51.75
2022-10-11T23:10:04.324Z,51.92
2022-10-11T23:12:30.584Z,63.10
2022-10-11T23:14:56.835Z,65.80
2022-10-11T23:17:23.083Z,61.40
2022-10-11T23:19:49.371Z,60.25
2022-10-11T23:22:15.615Z,59.13
2022-10-11T23:24:41.903Z,59.10
2022-10-11T23:27:08.164Z,54.95
2022-10-11T23:29:34.439Z,51.72
2022-10-11T23:32:00.693Z,50.20
2022-10-11T23:34:27.111Z,51.33
2022-10-11T23:36:53.368Z,49.38
2022-10-11T23:39:19.634Z,53.25
2022-10-11T23:41:45.891Z,52.38
2022-10-11T23:44:12.063Z,54.00
2022-10-11T23:46:38.320Z,57.58
2022-10-11T23:49:04.693Z,54.60
2022-10-11T23:51:30.961Z,60.78
2022-10-11T23:53:57.212Z,61.55
2022-10-11T23:56:23.484Z,60.20
2022-10-11T23:58:49.998Z,59.17
